createdAt,value
2018-11-04T00:00:27.340Z,2.26
2018-11-04T00:05:30.683Z,2.44
2018-11-04T00:10:33.970Z,2.42
2018-11-04T00:15:37.281Z,2.38
2018-11-04T00:20:40.516Z,2.37
2018-11-04T00:25:43.866Z,2.50
2018-11-04T00:30:47.085Z,2.60
2018-11-04T00:35:50.345Z,2.72
2018-11-04T00:40:53.628Z,2.82
2018-11-04T00:45:56.894Z,3.10
2018-11-04T00:51:00.260Z,3.53
2018-11-04T00:56:03.593Z,4.13
2018-11-04T01:01:06.750Z,4.38
2018-11-04T01:06:09.939Z,4.62
2018-11-04T01:11:13.286Z,4.75
2018-11-04T01:16:16.566Z,4.81
2018-11-04T01:21:19.952Z,4.78
2018-11-04T01:26:23.256Z,4.72
2018-11-04T01:31:26.576Z,4.85
2018-11-04T01:36:29.763Z,5.03
2018-11-04T01:41:32.946Z,5.08
2018-11-04T01:46:36.343Z,5.14
2018-11-04T01:51:39.735Z,5.20
2018-11-04T01:56:43.109Z,5.31
2018-11-04T02:01:46.435Z,5.38
2018-11-04T02:06:49.676Z,5.43
2018-11-04T02:11:52.958Z,5.44
2018-11-04T02:16:56.214Z,5.50
2018-11-04T02:21:59.473Z,5.53
2018-11-04T02:27:02.831Z,5.57
2018-11-04T02:32:06.210Z,5.63
2018-11-04T02:37:09.425Z,5.61
2018-11-04T02:42:12.594Z,5.71
2018-11-04T02:47:15.910Z,5.74
2018-11-04T02:52:19.178Z,5.84
2018-11-04T02:57:22.432Z,6.01
2018-11-04T03:02:25.748Z,6.17
2018-11-04T03:07:28.981Z,6.19
2018-11-04T03:12:32.141Z,6.40
2018-11-04T03:17:35.377Z,6.60
2018-11-04T03:22:38.591Z,6.68
2018-11-04T03:27:41.958Z,6.79
2018-11-04T03:32:45.139Z,6.86
2018-11-04T03:37:48.590Z,6.95
2018-11-04T03:42:51.827Z,7.01
2018-11-04T03:47:55.136Z,7.14
2018-11-04T03:52:59.307Z,7.22
2018-11-04T03:58:02.491Z,7.34
2018-11-04T04:03:05.733Z,7.49
2018-11-04T04:08:09.057Z,7.61
2018-11-04T04:13:12.230Z,7.80
2018-11-04T04:18:15.421Z,7.96
2018-11-04T04:23:18.869Z,8.01
2018-11-04T04:28:22.111Z,8.05
2018-11-04T04:33:25.548Z,8.10
2018-11-04T04:38:28.793Z,8.07
2018-11-04T04:43:32.120Z,8.14
2018-11-04T04:48:35.353Z,8.15
2018-11-04T04:53:38.524Z,8.24
2018-11-04T04:58:41.718Z,8.21
2018-11-04T05:03:44.982Z,8.20
2018-11-04T05:08:51.763Z,8.17
2018-11-04T05:13:55.706Z,8.20
2018-11-04T05:18:58.966Z,8.20
2018-11-04T05:24:02.606Z,8.31
2018-11-04T05:29:05.791Z,8.33
2018-11-04T05:34:09.059Z,8.37
2018-11-04T05:39:12.198Z,8.37
2018-11-04T05:44:15.487Z,8.36
2018-11-04T05:49:18.810Z,8.38
2018-11-04T05:54:22.125Z,8.39
2018-11-04T05:59:25.475Z,8.44
2018-11-04T06:04:28.696Z,8.43
2018-11-04T06:09:32.002Z,8.44
2018-11-04T06:14:35.265Z,8.42
2018-11-04T06:19:38.685Z,8.47
2018-11-04T06:24:41.895Z,8.50
2018-11-04T06:29:45.212Z,8.50
2018-11-04T06:34:48.647Z,8.53
2018-11-04T06:39:52.010Z,8.56
2018-11-04T06:44:55.356Z,8.62
2018-11-04T06:50:01.385Z,8.65
2018-11-04T06:55:05.487Z,8.70
2018-11-04T07:00:09.488Z,8.74
2018-11-04T07:05:12.628Z,8.79
2018-11-04T07:10:16.086Z,8.86
2018-11-04T07:15:19.415Z,8.93
2018-11-04T07:20:28.515Z,9.02
2018-11-04T07:25:31.760Z,9.12
2018-11-04T07:30:35.091Z,9.20
2018-11-04T07:35:38.333Z,9.30
2018-11-04T07:40:41.639Z,9.39
2018-11-04T07:45:44.976Z,9.44
2018-11-04T07:50:54.363Z,9.50
2018-11-04T07:55:57.633Z,9.60
2018-11-04T08:01:06.687Z,9.62
2018-11-04T08:06:15.631Z,9.76
2018-11-04T08:11:18.956Z,9.74
2018-11-04T08:16:23.433Z,9.89
2018-11-04T08:21:26.804Z,9.92
2018-11-04T08:26:30.093Z,9.95
2018-11-04T08:31:33.425Z,10.06
2018-11-04T08:36:36.693Z,10.09
2018-11-04T08:41:39.952Z,10.28
2018-11-04T08:46:43.336Z,10.46
2018-11-04T08:51:46.534Z,10.74
2018-11-04T08:56:49.823Z,10.97
2018-11-04T09:01:54.057Z,11.10
2018-11-04T09:06:57.511Z,11.14
2018-11-04T09:12:01.139Z,11.26
2018-11-04T09:17:04.918Z,11.38
2018-11-04T09:22:08.194Z,11.37
2018-11-04T09:27:11.485Z,11.44
2018-11-04T09:32:14.812Z,11.34
2018-11-04T09:37:18.063Z,11.36
2018-11-04T09:42:22.134Z,11.30
2018-11-04T09:47:25.541Z,11.26
2018-11-04T09:52:28.991Z,11.33
2018-11-04T09:57:32.335Z,11.24
2018-11-04T10:02:35.570Z,11.20
2018-11-04T10:07:38.819Z,11.10
2018-11-04T10:12:42.947Z,11.18
2018-11-04T10:17:46.269Z,11.18
2018-11-04T10:22:49.534Z,11.14
2018-11-04T10:27:52.867Z,11.13
2018-11-04T10:32:56.380Z,11.22
2018-11-04T10:37:59.815Z,11.37
2018-11-04T10:43:03.135Z,11.58
2018-11-04T10:48:06.796Z,11.56
2018-11-04T10:53:10.048Z,11.55
2018-11-04T10:58:13.404Z,11.55
2018-11-04T11:03:16.783Z,11.53
2018-11-04T11:08:20.680Z,11.50
2018-11-04T11:13:24.599Z,11.46
2018-11-04T11:18:28.694Z,11.47
2018-11-04T11:23:32.048Z,11.48
2018-11-04T11:28:35.347Z,11.59
2018-11-04T11:33:38.636Z,11.69
2018-11-04T11:38:41.873Z,11.59
2018-11-04T11:43:45.400Z,11.61
2018-11-04T11:48:48.964Z,11.58
2018-11-04T11:53:53.380Z,11.54
2018-11-04T11:58:56.986Z,11.56
2018-11-04T12:04:00.360Z,11.43
2018-11-04T12:09:05.000Z,11.50
2018-11-04T12:14:08.169Z,11.54
2018-11-04T12:19:11.368Z,11.49
2018-11-04T12:24:14.636Z,11.57
2018-11-04T12:29:17.849Z,11.56
2018-11-04T12:34:21.403Z,11.55
2018-11-04T12:39:25.525Z,11.51
2018-11-04T12:44:29.769Z,11.45
2018-11-04T12:49:33.065Z,11.30
2018-11-04T12:54:36.286Z,11.32
2018-11-04T12:59:39.581Z,11.31
2018-11-04T13:04:42.796Z,11.30
2018-11-04T13:09:46.086Z,11.30
2018-11-04T13:14:51.555Z,11.25
2018-11-04T13:19:54.896Z,11.21
2018-11-04T13:24:58.371Z,11.20
2018-11-04T13:30:01.716Z,11.09
2018-11-04T13:35:05.689Z,11.09
2018-11-04T13:40:10.782Z,11.11
2018-11-04T13:45:14.041Z,11.21
2018-11-04T13:50:17.666Z,11.18
2018-11-04T13:55:21.446Z,11.15
2018-11-04T14:00:25.138Z,11.11
2018-11-04T14:05:28.522Z,11.00
2018-11-04T14:10:32.336Z,10.99
2018-11-04T14:15:35.604Z,10.97
2018-11-04T14:20:39.064Z,10.94
2018-11-04T14:25:42.233Z,10.87
2018-11-04T14:30:45.578Z,10.83
2018-11-04T14:35:49.062Z,10.91
2018-11-04T14:40:52.749Z,10.84
2018-11-04T14:45:56.520Z,10.79
2018-11-04T14:51:00.002Z,10.82
2018-11-04T14:56:03.341Z,10.78
2018-11-04T15:01:06.778Z,10.80
2018-11-04T15:06:10.129Z,10.72
2018-11-04T15:11:13.322Z,10.75
2018-11-04T15:16:16.465Z,10.69
2018-11-04T15:21:20.667Z,10.66
2018-11-04T15:26:25.063Z,10.65
2018-11-04T15:31:28.603Z,10.68
2018-11-04T15:36:31.876Z,10.70
2018-11-04T15:41:35.887Z,10.63
2018-11-04T15:52:06.486Z,10.55
2018-11-04T15:57:17.050Z,10.53
2018-11-04T16:02:20.409Z,10.54
2018-11-04T16:07:24.176Z,10.48
2018-11-04T16:12:29.487Z,10.44
2018-11-04T16:17:32.736Z,10.39
2018-11-04T16:22:36.231Z,10.42
2018-11-04T16:27:39.519Z,10.39
2018-11-04T16:32:42.670Z,10.38
2018-11-04T16:37:45.966Z,10.36
2018-11-04T16:42:55.162Z,10.34
2018-11-04T16:48:07.615Z,10.42
2018-11-04T16:53:16.158Z,10.43
2018-11-04T16:58:23.469Z,10.44
2018-11-04T17:03:32.476Z,10.47
2018-11-04T17:08:37.232Z,10.51
2018-11-04T17:13:40.442Z,10.55
2018-11-04T17:18:51.976Z,10.56
2018-11-04T17:23:56.055Z,10.56
2018-11-04T17:28:59.595Z,10.53
2018-11-04T17:34:06.208Z,10.59
2018-11-04T17:39:12.081Z,10.61
2018-11-04T17:44:17.730Z,10.59
2018-11-04T17:49:21.783Z,10.59
2018-11-04T17:54:25.399Z,10.56
2018-11-04T17:59:29.289Z,10.57
2018-11-04T18:04:32.805Z,10.57
2018-11-04T18:09:36.316Z,10.57
2018-11-04T18:14:39.751Z,10.62
2018-11-04T18:19:43.043Z,10.66
2018-11-04T18:24:46.396Z,10.65
2018-11-04T18:29:50.355Z,10.67
2018-11-04T18:34:55.729Z,10.66
2018-11-04T18:39:59.030Z,10.68
2018-11-04T18:45:09.940Z,10.74
2018-11-04T18:50:24.256Z,10.70
2018-11-04T18:55:34.664Z,10.71
2018-11-04T19:00:48.383Z,10.71
2018-11-04T19:05:55.994Z,10.75
2018-11-04T19:11:06.190Z,10.78
2018-11-04T19:16:13.792Z,10.74
2018-11-04T19:21:21.521Z,10.77
2018-11-04T19:26:28.502Z,10.80
2018-11-04T19:31:39.597Z,10.79
2018-11-04T19:36:55.174Z,10.77
2018-11-04T19:42:04.623Z,10.73
2018-11-04T19:47:15.585Z,10.74
2018-11-04T19:52:23.986Z,10.73
2018-11-04T19:57:35.246Z,10.73
2018-11-04T20:02:39.382Z,10.78
2018-11-04T20:07:49.665Z,10.82
2018-11-04T20:12:56.092Z,10.80
2018-11-04T20:18:06.412Z,10.83
2018-11-04T20:23:10.728Z,10.81
2018-11-04T20:28:15.269Z,10.78
2018-11-04T20:33:18.970Z,10.80
2018-11-04T20:38:22.786Z,10.78
2018-11-04T20:43:26.233Z,10.76
2018-11-04T20:48:29.854Z,10.80
2018-11-04T20:53:33.134Z,10.76
2018-11-04T20:58:36.462Z,10.79
2018-11-04T21:03:39.599Z,10.76
2018-11-04T21:08:42.818Z,10.77
2018-11-04T21:13:46.849Z,10.80
2018-11-04T21:18:50.690Z,10.76
2018-11-04T21:23:55.649Z,10.80
2018-11-04T21:28:59.008Z,10.76
2018-11-04T21:34:02.249Z,10.78
2018-11-04T21:39:07.877Z,10.81
2018-11-04T21:44:11.280Z,10.82
2018-11-04T21:49:14.362Z,10.79
2018-11-04T21:54:17.601Z,10.80
2018-11-04T21:59:21.481Z,10.77
2018-11-04T22:04:24.930Z,10.83
2018-11-04T22:09:28.126Z,10.74
2018-11-04T22:14:31.367Z,10.79
2018-11-04T22:19:34.560Z,10.77
2018-11-04T22:24:37.833Z,10.75
2018-11-04T22:29:41.128Z,10.78
2018-11-04T22:34:44.380Z,10.75
2018-11-04T22:39:47.559Z,10.81
2018-11-04T22:44:51.023Z,10.86
2018-11-04T22:49:54.520Z,10.79
2018-11-04T22:54:57.859Z,10.75
2018-11-04T23:00:01.164Z,10.79
2018-11-04T23:05:04.871Z,10.78
2018-11-04T23:10:08.150Z,10.78
2018-11-04T23:15:11.405Z,10.73
2018-11-04T23:20:14.644Z,10.73
2018-11-04T23:25:18.079Z,10.76
2018-11-04T23:30:21.437Z,10.76
2018-11-04T23:35:24.823Z,10.76
2018-11-04T23:40:28.078Z,10.75
2018-11-04T23:45:31.352Z,10.77
2018-11-04T23:50:34.599Z,10.81
2018-11-04T23:55:40.073Z,10.76
